Time;durP1;ratioP1;P1;durP2;ratioP2;P2;SDS_P1;SDS_P2;PMS_P1;PMS_P2;Temp;Humidity;BMP_temperature;BMP_pressure;BME280_temperature;BME280_humidity;BME280_pressure;Samples;Min_cycle;Max_cycle;Signal;HPM_P1;HPM_P2
2022/08/27 00:02:05;;;;;;;2.92;0.95;;;23.60;59.10;;;;;;5028865;28;20515;-57
2022/08/27 00:04:31;;;;;;;4.07;1.02;;;23.60;59.10;;;;;;5029304;28;20022;-57
2022/08/27 00:06:56;;;;;;;4.35;1.13;;;23.60;59.00;;;;;;5028008;28;20025;-57
2022/08/27 00:09:22;;;;;;;3.97;1.08;;;23.50;59.00;;;;;;5029979;28;20389;-57
2022/08/27 00:11:49;;;;;;;3.40;1.10;;;23.50;59.10;;;;;;5029002;28;20632;-57
2022/08/27 00:14:15;;;;;;;3.53;1.15;;;23.50;59.10;;;;;;5029493;28;20036;-57
2022/08/27 00:16:41;;;;;;;2.30;0.88;;;23.50;59.10;;;;;;5029668;28;20029;-57
2022/08/27 00:19:12;;;;;;;2.10;0.80;;;23.50;59.10;;;;;;5028545;28;20121;-57
2022/08/27 00:21:38;;;;;;;1.98;1.00;;;23.50;59.10;;;;;;5028188;28;20037;-57
2022/08/27 00:24:04;;;;;;;2.60;1.00;;;23.50;59.10;;;;;;5027804;28;20581;-57
2022/08/27 00:26:29;;;;;;;4.43;0.90;;;23.50;59.20;;;;;;5029899;28;20029;-58
2022/08/27 00:28:55;;;;;;;3.60;1.20;;;23.50;59.20;;;;;;5029133;28;20051;-57
2022/08/27 00:31:21;;;;;;;2.70;0.80;;;23.50;59.20;;;;;;5029033;28;20025;-57
2022/08/27 00:33:46;;;;;;;1.67;0.80;;;23.50;59.20;;;;;;5028662;28;20029;-57
2022/08/27 00:36:12;;;;;;;2.35;1.05;;;23.50;59.30;;;;;;5026912;28;20509;-57
2022/08/27 00:38:39;;;;;;;3.80;1.10;;;23.50;59.20;;;;;;5029801;28;20040;-57
2022/08/27 00:41:07;;;;;;;2.63;0.82;;;23.50;59.30;;;;;;5027096;28;20037;-57
2022/08/27 00:44:05;;;;;;;1.85;0.82;;;23.50;59.20;;;;;;5028572;28;20033;-57
2022/08/27 00:46:49;;;;;;;4.07;1.00;;;23.40;60.30;;;;;;5027337;28;20029;-57
2022/08/27 00:49:17;;;;;;;3.03;1.00;;;23.40;59.20;;;;;;5025872;28;20041;-57
2022/08/27 00:51:43;;;;;;;4.03;1.17;;;23.40;59.30;;;;;;5025256;28;20037;-57
2022/08/27 00:54:08;;;;;;;2.35;0.90;;;23.40;59.30;;;;;;5026120;28;20054;-57
2022/08/27 00:56:38;;;;;;;2.50;0.90;;;23.40;59.20;;;;;;5026360;28;20029;-57
2022/08/27 00:59:04;;;;;;;2.70;0.98;;;23.40;59.30;;;;;;5026161;28;20044;-57
2022/08/27 01:01:31;;;;;;;3.42;1.17;;;23.40;59.30;;;;;;5026001;28;20033;-57
2022/08/27 01:03:59;;;;;;;2.40;1.13;;;23.40;59.30;;;;;;5032079;28;20397;-57
2022/08/27 01:06:30;;;;;;;2.85;0.90;;;23.30;59.40;;;;;;5028022;28;20114;-57
2022/08/27 01:09:04;;;;;;;2.42;0.82;;;23.40;59.40;;;;;;5025732;28;20493;-57
2022/08/27 01:11:30;;;;;;;2.45;0.90;;;23.30;59.30;;;;;;5025587;28;20033;-57
2022/08/27 01:13:56;;;;;;;2.33;1.05;;;23.30;59.30;;;;;;5027340;28;20087;-57
2022/08/27 01:16:24;;;;;;;2.72;1.02;;;23.30;59.50;;;;;;5023751;28;20501;-57
2022/08/27 01:18:49;;;;;;;1.85;0.90;;;23.30;59.40;;;;;;5025411;28;20033;-58
2022/08/27 01:21:56;;;;;;;1.95;0.98;;;23.30;59.40;;;;;;5027721;28;20029;-57
2022/08/27 01:24:35;;;;;;;2.83;0.90;;;23.30;59.40;;;;;;5023572;28;20037;-57
2022/08/27 01:27:02;;;;;;;2.55;0.70;;;23.30;59.50;;;;;;5025958;28;20490;-57
2022/08/27 01:29:28;;;;;;;2.72;0.82;;;23.30;59.50;;;;;;5025503;28;20520;-57
2022/08/27 01:32:05;;;;;;;2.63;0.95;;;23.30;59.50;;;;;;5025771;28;20030;-57
2022/08/27 01:34:31;;;;;;;2.55;0.90;;;23.30;59.60;;;;;;5026932;28;20033;-57
2022/08/27 01:36:57;;;;;;;1.92;0.80;;;23.20;59.40;;;;;;5026655;28;20375;-57
2022/08/27 01:39:22;;;;;;;2.85;0.75;;;23.20;59.40;;;;;;5030073;28;20037;-59
2022/08/27 01:41:48;;;;;;;2.47;1.00;;;23.30;59.60;;;;;;5029613;28;20394;-57
2022/08/27 01:44:14;;;;;;;1.77;0.82;;;23.30;59.50;;;;;;5028959;28;20056;-57
2022/08/27 01:46:39;;;;;;;2.20;0.65;;;23.20;59.50;;;;;;5033835;28;20415;-57
2022/08/27 01:49:05;;;;;;;2.05;0.82;;;23.20;59.50;;;;;;5029030;28;20452;-57
2022/08/27 01:51:31;;;;;;;1.85;0.80;;;23.20;59.50;;;;;;5029595;28;20526;-57
2022/08/27 01:53:56;;;;;;;2.15;1.10;;;23.20;59.50;;;;;;5026256;28;20514;-57
2022/08/27 01:56:22;;;;;;;2.05;0.80;;;23.20;59.50;;;;;;5029138;28;20383;-57
2022/08/27 01:58:48;;;;;;;2.75;0.80;;;23.20;59.50;;;;;;5029215;28;20550;-57
2022/08/27 02:01:15;;;;;;;3.60;0.90;;;23.20;59.50;;;;;;5026626;28;20035;-57
2022/08/27 02:03:41;;;;;;;1.52;0.80;;;23.20;59.50;;;;;;5037094;28;20103;-57
2022/08/27 02:06:08;;;;;;;1.13;0.70;;;23.20;59.50;;;;;;5025636;28;20498;-57
2022/08/27 02:08:34;;;;;;;2.50;0.90;;;23.20;59.60;;;;;;5026594;28;20034;-57
2022/08/27 02:10:59;;;;;;;1.88;0.88;;;23.10;59.60;;;;;;5027158;28;20588;-57
2022/08/27 02:13:25;;;;;;;1.73;0.68;;;23.10;59.50;;;;;;5029424;28;20246;-57
2022/08/27 02:15:51;;;;;;;2.72;0.90;;;23.10;59.50;;;;;;5026951;28;20032;-57
2022/08/27 02:18:17;;;;;;;1.85;0.90;;;23.10;59.60;;;;;;5027704;28;20108;-57
2022/08/27 02:20:44;;;;;;;2.28;0.93;;;23.10;59.60;;;;;;5026045;28;20123;-57
2022/08/27 02:23:09;;;;;;;2.60;0.82;;;23.10;59.60;;;;;;5021853;28;20379;-57
2022/08/27 02:25:35;;;;;;;2.15;0.80;;;23.10;59.50;;;;;;5023030;28;20075;-57
2022/08/27 02:28:01;;;;;;;1.67;0.70;;;23.10;59.50;;;;;;5020356;28;20054;-56
2022/08/27 02:30:28;;;;;;;1.83;1.00;;;23.10;59.60;;;;;;5016741;28;20021;-57
2022/08/27 02:32:53;;;;;;;0.80;0.60;;;23.10;59.60;;;;;;5023928;28;20371;-57
2022/08/27 02:35:21;;;;;;;1.40;0.77;;;23.10;59.60;;;;;;5026093;28;20040;-57
2022/08/27 02:37:47;;;;;;;2.50;0.80;;;23.10;59.50;;;;;;5021122;28;20033;-57
2022/08/27 02:40:17;;;;;;;2.75;0.80;;;23.10;59.50;;;;;;5027949;28;20068;-57
2022/08/27 02:42:43;;;;;;;1.52;0.70;;;23.10;59.60;;;;;;5024871;28;20037;-57
2022/08/27 02:45:09;;;;;;;1.30;0.70;;;23.00;59.50;;;;;;5026348;28;20029;-57
2022/08/27 02:47:34;;;;;;;2.70;0.90;;;23.00;59.50;;;;;;5023122;28;20068;-57
2022/08/27 02:50:00;;;;;;;1.30;0.90;;;23.00;59.60;;;;;;5024732;28;20496;-56
2022/08/27 02:52:29;;;;;;;2.63;0.90;;;23.00;59.60;;;;;;5021181;28;20536;-57
2022/08/27 02:54:57;;;;;;;1.65;0.70;;;23.00;59.60;;;;;;5023203;28;20035;-57
2022/08/27 02:57:23;;;;;;;1.63;0.80;;;23.00;59.50;;;;;;5022936;28;20037;-56
2022/08/27 02:59:49;;;;;;;1.98;0.80;;;23.00;59.50;;;;;;5024696;28;20091;-56
2022/08/27 03:02:15;;;;;;;1.70;0.93;;;23.00;59.50;;;;;;5026556;28;20065;-57
2022/08/27 03:04:41;;;;;;;3.00;1.00;;;23.00;59.50;;;;;;5028766;28;20049;-57
2022/08/27 03:07:07;;;;;;;1.15;0.77;;;23.00;59.60;;;;;;5029615;28;20026;-57
2022/08/27 03:09:33;;;;;;;2.72;0.85;;;23.00;59.50;;;;;;5029309;28;20481;-57
2022/08/27 03:11:59;;;;;;;1.67;0.90;;;23.00;59.60;;;;;;5029291;28;20037;-57
2022/08/27 03:14:24;;;;;;;1.20;0.90;;;23.00;59.60;;;;;;5028539;28;20505;-57
2022/08/27 03:16:50;;;;;;;2.60;0.85;;;23.00;59.60;;;;;;5022932;28;20034;-57
2022/08/27 03:19:16;;;;;;;2.42;0.80;;;22.90;59.60;;;;;;5021757;28;20087;-57
2022/08/27 03:21:41;;;;;;;1.98;0.90;;;22.90;59.60;;;;;;5024844;28;20044;-57
2022/08/27 03:24:07;;;;;;;1.60;0.90;;;22.90;59.60;;;;;;5025829;28;20052;-57
2022/08/27 03:26:33;;;;;;;2.30;0.80;;;22.90;59.60;;;;;;5029838;28;20470;-57
2022/08/27 03:28:59;;;;;;;2.67;0.93;;;22.90;59.60;;;;;;5028339;28;20034;-57
2022/08/27 03:31:26;;;;;;;2.30;1.00;;;22.90;59.60;;;;;;5027142;28;20094;-57
2022/08/27 03:33:53;;;;;;;1.30;0.80;;;22.90;59.70;;;;;;5030838;28;20110;-57
2022/08/27 03:36:19;;;;;;;1.67;0.85;;;22.90;59.60;;;;;;5026337;28;20063;-57
2022/08/27 03:38:44;;;;;;;1.85;0.80;;;22.90;59.60;;;;;;5026241;28;20187;-57
2022/08/27 03:41:10;;;;;;;1.92;0.80;;;22.90;59.60;;;;;;5023921;28;20041;-57
2022/08/27 03:43:36;;;;;;;1.70;0.60;;;22.90;59.60;;;;;;5025710;28;20056;-57
2022/08/27 03:46:02;;;;;;;1.08;0.77;;;22.90;59.70;;;;;;5021231;28;20478;-57
2022/08/27 03:48:28;;;;;;;2.00;0.75;;;22.80;59.60;;;;;;5023972;28;20409;-56
2022/08/27 03:50:53;;;;;;;2.30;0.90;;;22.90;59.70;;;;;;5029945;28;20026;-57
2022/08/27 03:53:19;;;;;;;2.50;0.90;;;22.80;59.70;;;;;;5029625;28;20056;-56
2022/08/27 03:55:45;;;;;;;2.10;0.73;;;22.90;59.50;;;;;;5028118;28;20029;-57
2022/08/27 03:58:11;;;;;;;2.53;0.88;;;22.80;59.60;;;;;;5027635;28;20124;-57
2022/08/27 04:00:38;;;;;;;0.93;0.70;;;22.80;59.60;;;;;;5026884;28;20051;-57
2022/08/27 04:03:04;;;;;;;1.80;0.82;;;22.80;59.70;;;;;;5029604;28;20029;-57
2022/08/27 04:05:30;;;;;;;1.70;0.65;;;22.80;59.50;;;;;;5030528;28;20111;-57
2022/08/27 04:07:56;;;;;;;1.92;0.80;;;22.80;60.00;;;;;;5027272;28;20717;-57
2022/08/27 04:10:22;;;;;;;1.83;0.80;;;22.80;59.70;;;;;;5024572;28;20022;-57
2022/08/27 04:12:47;;;;;;;1.33;0.90;;;22.80;59.60;;;;;;5027560;28;20037;-57
2022/08/27 04:15:13;;;;;;;1.13;0.70;;;22.80;59.70;;;;;;5025451;28;20025;-57
2022/08/27 04:17:39;;;;;;;1.85;0.82;;;22.80;59.70;;;;;;5023196;28;20037;-57
2022/08/27 04:20:05;;;;;;;1.73;0.60;;;22.70;59.70;;;;;;5028610;28;20022;-56
2022/08/27 04:22:32;;;;;;;2.08;0.77;;;22.80;59.70;;;;;;5027653;28;20486;-57
2022/08/27 04:24:58;;;;;;;1.70;0.73;;;22.80;60.70;;;;;;5028335;28;20120;-57
2022/08/27 04:27:25;;;;;;;0.90;0.60;;;22.70;59.70;;;;;;5028289;28;20112;-57
2022/08/27 04:29:54;;;;;;;1.88;0.88;;;22.70;59.70;;;;;;5030036;28;20029;-57
2022/08/27 04:32:20;;;;;;;1.63;0.75;;;22.70;59.70;;;;;;5029225;28;20045;-57
2022/08/27 04:34:46;;;;;;;2.53;1.00;;;22.70;59.70;;;;;;5026442;28;20024;-57
2022/08/27 04:37:11;;;;;;;1.75;0.73;;;22.70;59.60;;;;;;5029050;28;20026;-57
2022/08/27 04:39:37;;;;;;;0.77;0.70;;;22.70;59.60;;;;;;5022454;28;20029;-57
2022/08/27 04:42:03;;;;;;;3.78;0.82;;;22.70;59.60;;;;;;5023949;28;20021;-57
2022/08/27 04:44:31;;;;;;;1.13;0.70;;;22.70;59.60;;;;;;5025118;28;20071;-57
2022/08/27 04:46:58;;;;;;;1.92;0.70;;;22.70;59.60;;;;;;5026284;28;20025;-57
2022/08/27 04:49:25;;;;;;;1.55;0.70;;;22.70;59.70;;;;;;5026708;28;20032;-57
2022/08/27 04:51:50;;;;;;;2.72;0.80;;;22.70;59.70;;;;;;5027251;28;20038;-57
2022/08/27 04:54:16;;;;;;;1.45;0.80;;;22.70;59.70;;;;;;5021437;28;20047;-57
2022/08/27 04:56:43;;;;;;;0.95;0.65;;;22.70;59.60;;;;;;5027424;28;20107;-57
2022/08/27 04:59:08;;;;;;;1.05;0.70;;;22.70;59.70;;;;;;5024932;28;20541;-57
2022/08/27 05:01:34;;;;;;;1.83;0.73;;;22.70;59.80;;;;;;5023080;28;20034;-57
2022/08/27 05:04:00;;;;;;;1.60;0.80;;;22.70;59.60;;;;;;5026951;28;20139;-57
2022/08/27 05:06:26;;;;;;;1.17;0.70;;;22.60;59.50;;;;;;5025592;28;20021;-57
2022/08/27 05:08:53;;;;;;;1.83;0.60;;;22.60;59.50;;;;;;5025524;28;20037;-57
2022/08/27 05:11:19;;;;;;;1.00;0.68;;;22.60;59.60;;;;;;5024323;28;20029;-57
2022/08/27 05:13:45;;;;;;;1.27;0.63;;;22.60;59.60;;;;;;5024804;28;20070;-57
2022/08/27 05:16:13;;;;;;;0.90;0.80;;;22.60;59.70;;;;;;5022597;28;20033;-57
2022/08/27 05:18:39;;;;;;;1.20;0.70;;;22.60;59.60;;;;;;5021599;28;20044;-57
2022/08/27 05:21:05;;;;;;;1.50;0.80;;;22.60;59.70;;;;;;5024170;28;20025;-57
2022/08/27 05:23:31;;;;;;;2.45;0.80;;;22.60;59.70;;;;;;5023398;28;20029;-57
2022/08/27 05:25:57;;;;;;;1.25;0.82;;;22.60;59.70;;;;;;5022692;28;20022;-57
2022/08/27 05:28:23;;;;;;;0.73;0.60;;;22.60;59.60;;;;;;5025179;28;20047;-57
2022/08/27 05:30:50;;;;;;;0.73;0.50;;;22.60;59.70;;;;;;5025688;28;20432;-57
2022/08/27 05:33:18;;;;;;;1.48;0.90;;;22.60;59.60;;;;;;5023697;28;20037;-57
2022/08/27 05:35:45;;;;;;;1.27;0.70;;;22.60;59.70;;;;;;5020277;28;20045;-57
2022/08/27 05:38:10;;;;;;;1.40;0.90;;;22.60;59.70;;;;;;5024682;28;20140;-57
2022/08/27 05:40:37;;;;;;;1.17;0.80;;;22.60;59.70;;;;;;5020641;28;20545;-57
2022/08/27 05:43:04;;;;;;;1.10;0.70;;;22.50;59.60;;;;;;5024811;28;20041;-57
2022/08/27 05:45:30;;;;;;;1.25;0.77;;;22.50;59.70;;;;;;5025421;28;20060;-57
2022/08/27 05:47:56;;;;;;;2.40;0.88;;;22.50;59.80;;;;;;5022439;28;20038;-57
2022/08/27 05:50:21;;;;;;;1.05;0.68;;;22.50;59.70;;;;;;5024684;28;20444;-57
2022/08/27 05:52:47;;;;;;;3.35;0.82;;;22.50;59.70;;;;;;5021685;28;20071;-58
2022/08/27 05:55:13;;;;;;;1.50;0.80;;;22.50;59.70;;;;;;5024545;28;20018;-57
2022/08/27 05:57:38;;;;;;;1.05;0.70;;;22.50;59.80;;;;;;5023877;28;20037;-57
2022/08/27 06:02:49;;;;;;;0.70;0.60;;;22.50;59.80;;;;;;5025343;28;20120;-57
2022/08/27 06:05:15;;;;;;;0.93;0.60;;;22.50;59.70;;;;;;5022915;28;20041;-57
2022/08/27 06:07:40;;;;;;;1.40;0.82;;;22.50;59.70;;;;;;5023669;28;20097;-57
2022/08/27 06:10:07;;;;;;;1.60;0.80;;;22.50;59.70;;;;;;5023320;28;20025;-57
2022/08/27 06:12:33;;;;;;;1.23;0.60;;;22.50;59.70;;;;;;5020487;28;20025;-57
2022/08/27 06:15:00;;;;;;;1.35;0.70;;;22.50;59.70;;;;;;5024019;28;20033;-57
2022/08/27 06:17:25;;;;;;;0.80;0.70;;;22.50;59.90;;;;;;5012373;28;20057;-57
2022/08/27 06:19:51;;;;;;;1.63;0.70;;;22.50;59.80;;;;;;5025056;28;20509;-57
2022/08/27 06:22:17;;;;;;;1.27;0.77;;;22.50;59.80;;;;;;5026605;28;20631;-57
2022/08/27 06:24:42;;;;;;;1.02;0.70;;;22.50;59.80;;;;;;5026141;28;20029;-57
2022/08/27 06:27:11;;;;;;;1.05;0.70;;;22.50;59.80;;;;;;5024188;28;20053;-57
2022/08/27 06:29:37;;;;;;;1.02;0.80;;;22.50;59.80;;;;;;5024287;28;20117;-57
2022/08/27 06:32:14;;;;;;;0.68;0.60;;;22.50;59.80;;;;;;5024751;28;20163;-56
2022/08/27 06:34:39;;;;;;;2.55;0.93;;;22.50;60.00;;;;;;5025941;28;20033;-57
2022/08/27 06:37:06;;;;;;;1.10;0.80;;;22.40;59.80;;;;;;5026997;28;20029;-57
2022/08/27 06:39:32;;;;;;;1.95;0.80;;;22.40;59.80;;;;;;5050299;28;20041;-57
2022/08/27 06:41:58;;;;;;;1.20;0.57;;;22.40;59.90;;;;;;5027055;28;20462;-57
2022/08/27 06:44:24;;;;;;;2.45;0.95;;;22.40;59.80;;;;;;5025901;28;20044;-57
2022/08/27 06:46:50;;;;;;;1.73;0.85;;;22.40;59.80;;;;;;5024005;28;20034;-57
2022/08/27 06:49:16;;;;;;;1.00;0.68;;;22.40;59.80;;;;;;5026405;28;20035;-57
2022/08/27 06:51:44;;;;;;;1.23;0.60;;;22.50;59.90;;;;;;5026613;28;20032;-57
2022/08/27 06:54:11;;;;;;;1.27;0.73;;;22.40;59.90;;;;;;5024600;28;20059;-57
2022/08/27 06:56:37;;;;;;;1.33;0.70;;;22.40;60.00;;;;;;5027601;28;20486;-56
2022/08/27 06:59:05;;;;;;;1.20;0.80;;;22.40;59.90;;;;;;5027526;28;20129;-57
2022/08/27 07:01:35;;;;;;;1.88;0.82;;;22.40;59.90;;;;;;5026545;28;20375;-57
2022/08/27 07:04:04;;;;;;;0.95;0.70;;;22.40;59.90;;;;;;5026012;28;20033;-57
2022/08/27 07:06:30;;;;;;;1.42;0.60;;;22.40;59.90;;;;;;5028101;28;20031;-57
2022/08/27 07:08:56;;;;;;;1.60;0.65;;;22.40;59.90;;;;;;5026719;28;20029;-56
2022/08/27 07:11:22;;;;;;;1.55;0.75;;;22.40;59.90;;;;;;5026701;28;20049;-56
2022/08/27 07:13:48;;;;;;;1.15;0.60;;;22.40;60.00;;;;;;5025351;28;20064;-56
2022/08/27 07:16:19;;;;;;;0.77;0.70;;;22.40;59.90;;;;;;5026732;28;20025;-57
2022/08/27 07:18:45;;;;;;;0.52;0.52;;;22.40;60.00;;;;;;5024254;28;20058;-56
2022/08/27 07:21:11;;;;;;;1.15;0.77;;;22.40;60.00;;;;;;5020041;28;20119;-57
2022/08/27 07:23:37;;;;;;;1.27;0.70;;;22.40;60.00;;;;;;5026427;28;20083;-57
2022/08/27 07:26:09;;;;;;;0.80;0.70;;;22.40;60.00;;;;;;5027051;28;20025;-57
2022/08/27 07:28:36;;;;;;;0.82;0.70;;;22.40;60.00;;;;;;5025063;28;20275;-57
2022/08/27 07:31:07;;;;;;;1.38;0.75;;;22.40;59.90;;;;;;5025252;28;20033;-57
2022/08/27 07:33:36;;;;;;;1.13;0.77;;;22.40;60.00;;;;;;5025681;28;20116;-56
2022/08/27 07:36:03;;;;;;;1.40;0.60;;;22.40;59.90;;;;;;5022948;28;20030;-57
2022/08/27 07:38:29;;;;;;;0.52;0.52;;;22.40;59.90;;;;;;5026016;28;20123;-56
2022/08/27 07:40:54;;;;;;;0.98;0.70;;;22.40;60.00;;;;;;5024429;28;20856;-57
2022/08/27 07:46:04;;;;;;;2.20;0.70;;;22.40;60.00;;;;;;5024907;28;20059;-56
2022/08/27 07:48:32;;;;;;;5.10;0.90;;;22.40;60.00;;;;;;5018857;28;20299;-57
2022/08/27 07:50:58;;;;;;;2.25;0.80;;;22.50;60.20;;;;;;5023760;28;20033;-56
2022/08/27 07:53:23;;;;;;;1.02;0.90;;;22.40;60.10;;;;;;5027129;28;20045;-57
2022/08/27 07:55:49;;;;;;;1.02;0.60;;;22.50;60.20;;;;;;5029879;28;20033;-56
2022/08/27 07:58:15;;;;;;;0.98;0.77;;;22.50;60.20;;;;;;5025188;28;20041;-56
2022/08/27 08:00:42;;;;;;;1.00;0.60;;;22.50;60.20;;;;;;5027993;28;20026;-56
2022/08/27 08:03:08;;;;;;;1.75;0.85;;;22.50;60.20;;;;;;5029823;28;20033;-57
2022/08/27 08:05:33;;;;;;;3.28;0.80;;;22.50;60.20;;;;;;5025128;28;20043;-57
2022/08/27 08:07:59;;;;;;;3.17;0.70;;;22.50;60.20;;;;;;5029090;28;20030;-56
2022/08/27 08:10:26;;;;;;;3.83;0.60;;;22.50;60.30;;;;;;5027401;28;20660;-56
2022/08/27 08:12:52;;;;;;;1.38;0.75;;;22.50;60.20;;;;;;5024595;28;20025;-56
2022/08/27 08:15:18;;;;;;;1.80;0.70;;;22.60;60.10;;;;;;5025320;28;20040;-56
2022/08/27 08:17:43;;;;;;;1.77;0.70;;;22.60;60.00;;;;;;5020984;28;20129;-56
2022/08/27 08:20:10;;;;;;;1.45;0.70;;;22.60;60.00;;;;;;5027631;28;20030;-57
2022/08/27 08:22:36;;;;;;;3.72;0.85;;;22.60;60.10;;;;;;5022890;28;20037;-57
2022/08/27 08:25:03;;;;;;;4.03;0.70;;;22.60;60.10;;;;;;5024990;28;20141;-57
2022/08/27 08:27:29;;;;;;;4.80;0.80;;;22.60;60.30;;;;;;5022905;28;20030;-57
2022/08/27 08:29:54;;;;;;;4.47;0.80;;;22.70;60.30;;;;;;5030132;28;20037;-56
2022/08/27 08:32:20;;;;;;;4.93;1.00;;;22.70;60.30;;;;;;5026561;28;20033;-57
2022/08/27 08:34:46;;;;;;;3.10;0.80;;;22.70;60.40;;;;;;5027095;28;20030;-58
2022/08/27 08:37:13;;;;;;;2.50;0.80;;;22.80;60.40;;;;;;5027914;28;20241;-57
2022/08/27 08:39:39;;;;;;;5.28;0.85;;;22.80;60.60;;;;;;5023925;28;20035;-57
2022/08/27 08:42:06;;;;;;;6.65;1.00;;;22.80;60.70;;;;;;5025041;28;20106;-57
2022/08/27 08:44:35;;;;;;;5.47;1.00;;;22.80;60.50;;;;;;5030060;28;20029;-57
2022/08/27 08:47:11;;;;;;;4.25;1.02;;;22.80;60.70;;;;;;5017645;28;20049;-57
2022/08/27 08:49:55;;;;;;;4.05;1.10;;;22.90;60.70;;;;;;5038516;28;20026;-57
2022/08/27 08:52:33;;;;;;;5.70;1.23;;;22.90;60.80;;;;;;5023579;28;20044;-57
2022/08/27 08:55:34;;;;;;;5.10;1.20;;;22.90;61.00;;;;;;5026634;28;20025;-57
2022/08/27 08:58:11;;;;;;;3.05;0.98;;;23.00;61.20;;;;;;5021791;28;20577;-57
2022/08/27 09:00:39;;;;;;;6.03;1.17;;;23.00;61.30;;;;;;5027002;28;20557;-57
2022/08/27 09:03:05;;;;;;;3.85;1.10;;;23.00;61.30;;;;;;5027453;28;20083;-57
2022/08/27 09:05:31;;;;;;;4.55;1.00;;;23.00;61.30;;;;;;5027431;28;20028;-57
2022/08/27 09:08:18;;;;;;;3.63;1.08;;;23.00;61.30;;;;;;5021900;28;20413;-57
2022/08/27 09:10:48;;;;;;;4.40;0.98;;;23.00;61.30;;;;;;5022776;28;20038;-57
2022/08/27 09:13:24;;;;;;;4.15;1.00;;;23.00;61.20;;;;;;5025268;28;20514;-57
2022/08/27 09:15:53;;;;;;;5.82;1.27;;;23.00;61.60;;;;;;5026092;28;20028;-57
2022/08/27 09:18:19;;;;;;;6.05;1.40;;;23.00;61.80;;;;;;5026539;28;20037;-57
2022/08/27 09:20:46;;;;;;;7.90;1.27;;;23.00;62.90;;;;;;5023843;28;20026;-57
2022/08/27 09:23:18;;;;;;;6.13;1.27;;;23.00;61.60;;;;;;5027493;28;20172;-57
2022/08/27 09:25:44;;;;;;;5.75;1.27;;;23.00;61.50;;;;;;5031839;28;20032;-57
2022/08/27 09:30:59;;;;;;;6.20;1.30;;;23.00;61.70;;;;;;5030053;28;20041;-57
2022/08/27 09:33:25;;;;;;;7.32;1.48;;;23.10;61.90;;;;;;5029029;28;20029;-57
2022/08/27 09:35:51;;;;;;;8.85;1.60;;;23.10;62.20;;;;;;5030718;28;20857;-57
2022/08/27 09:38:35;;;;;;;6.65;1.60;;;23.10;61.70;;;;;;5027326;28;20041;-57
2022/08/27 09:41:12;;;;;;;3.95;1.40;;;23.10;61.90;;;;;;5051565;28;20445;-57
2022/08/27 09:43:42;;;;;;;5.70;1.20;;;23.10;61.80;;;;;;5009275;28;20064;-57
2022/08/27 09:46:20;;;;;;;8.00;1.63;;;23.10;61.40;;;;;;5026029;28;20032;-58
2022/08/27 09:48:46;;;;;;;6.13;1.48;;;23.20;61.70;;;;;;5023640;28;20139;-57
2022/08/27 09:51:13;;;;;;;3.85;1.23;;;23.20;61.60;;;;;;5026859;28;20108;-57
2022/08/27 09:53:46;;;;;;;7.05;1.52;;;23.20;61.40;;;;;;5024997;28;20536;-57
2022/08/27 09:56:48;;;;;;;5.35;1.40;;;23.20;61.60;;;;;;5023463;28;20508;-57
2022/08/27 09:59:39;;;;;;;7.47;1.70;;;23.20;61.60;;;;;;5017477;28;20054;-57
2022/08/27 10:02:20;;;;;;;5.80;1.33;;;23.20;61.70;;;;;;5028063;28;20030;-57
2022/08/27 10:04:52;;;;;;;4.10;1.13;;;23.20;61.70;;;;;;5024784;28;20041;-57
2022/08/27 10:07:38;;;;;;;4.38;1.27;;;23.30;61.70;;;;;;5024911;28;20616;-57
2022/08/27 10:10:12;;;;;;;7.28;1.45;;;23.30;61.70;;;;;;5025705;28;20092;-57
2022/08/27 10:12:42;;;;;;;3.50;1.17;;;23.30;61.30;;;;;;5025458;28;20044;-57
2022/08/27 10:15:07;;;;;;;5.03;1.38;;;23.30;61.40;;;;;;5042283;28;20056;-58
2022/08/27 10:17:58;;;;;;;6.70;1.48;;;23.30;61.40;;;;;;5023437;28;20489;-57
2022/08/27 10:20:32;;;;;;;7.30;1.50;;;23.30;61.30;;;;;;5012680;28;20083;-57
2022/08/27 10:23:04;;;;;;;;;;;23.30;61.30;;;;;;5022253;28;20026;-57
2022/08/27 10:25:42;;;;;;;2.85;1.25;;;23.30;61.50;;;;;;5055073;28;19972;-57
2022/08/27 10:28:13;;;;;;;7.05;1.60;;;23.30;61.30;;;;;;5024675;28;20445;-58
2022/08/27 10:31:02;;;;;;;13.00;1.75;;;23.40;61.70;;;;;;5027057;28;20032;-57
2022/08/27 10:33:49;;;;;;;6.05;1.50;;;23.40;61.70;;;;;;5024639;28;20029;-58
2022/08/27 10:36:34;;;;;;;4.65;1.40;;;23.40;61.50;;;;;;5023536;28;20022;-57
2022/08/27 10:39:22;;;;;;;7.15;1.40;;;23.40;61.60;;;;;;5025878;28;20041;-57
2022/08/27 10:42:14;;;;;;;5.63;1.50;;;23.50;61.50;;;;;;5023490;28;20091;-57
2022/08/27 10:44:56;;;;;;;6.57;1.50;;;23.50;61.60;;;;;;5019741;28;20037;-57
2022/08/27 10:47:38;;;;;;;3.90;1.40;;;23.50;61.50;;;;;;5025369;28;20528;-57
2022/08/27 10:50:04;;;;;;;4.43;1.50;;;23.60;61.50;;;;;;5020895;28;20029;-57
2022/08/27 10:52:49;;;;;;;5.90;1.58;;;23.60;61.60;;;;;;5025970;28;20060;-57
2022/08/27 10:55:32;;;;;;;5.13;1.52;;;23.60;61.50;;;;;;5025203;28;20427;-57
2022/08/27 10:58:20;;;;;;;6.65;1.80;;;23.60;61.50;;;;;;5025273;28;20041;-57
2022/08/27 11:00:55;;;;;;;7.10;1.50;;;23.60;61.50;;;;;;5024778;28;20512;-57
2022/08/27 11:03:24;;;;;;;5.47;1.65;;;23.60;61.50;;;;;;5015898;28;20874;-57
2022/08/27 11:05:49;;;;;;;8.35;1.35;;;23.60;61.40;;;;;;5020127;28;20026;-57
2022/08/27 11:08:20;;;;;;;7.18;1.60;;;23.60;61.40;;;;;;5023394;28;20064;-57
2022/08/27 11:10:49;;;;;;;5.97;1.42;;;23.70;61.00;;;;;;5025018;28;20029;-57
2022/08/27 11:13:28;;;;;;;8.27;1.48;;;23.60;60.80;;;;;;5018489;28;20042;-57
2022/08/27 11:15:55;;;;;;;8.65;1.67;;;23.60;61.50;;;;;;5021479;28;20524;-57
2022/08/27 11:18:30;;;;;;;3.67;1.27;;;23.70;61.20;;;;;;5021915;28;20447;-57
2022/08/27 11:20:59;;;;;;;9.35;1.65;;;23.70;61.40;;;;;;5021982;28;20079;-57
2022/08/27 11:23:40;;;;;;;5.70;1.38;;;23.70;61.20;;;;;;5019505;28;20124;-58
2022/08/27 11:26:06;;;;;;;6.47;1.45;;;23.80;61.20;;;;;;5022344;28;20025;-57
2022/08/27 11:28:38;;;;;;;6.80;1.48;;;23.80;61.00;;;;;;5025471;28;20075;-57
2022/08/27 11:31:28;;;;;;;6.55;1.40;;;23.80;60.50;;;;;;5022185;28;20025;-57
2022/08/27 11:34:12;;;;;;;3.25;1.30;;;23.80;60.60;;;;;;5026647;28;20029;-57
2022/08/27 11:36:54;;;;;;;4.25;1.38;;;23.80;60.80;;;;;;5020559;28;20087;-57
2022/08/27 11:39:48;;;;;;;7.10;1.55;;;23.90;60.70;;;;;;5025208;28;20088;-57
2022/08/27 11:42:40;;;;;;;4.97;1.30;;;23.90;60.50;;;;;;5025681;28;20045;-58
2022/08/27 11:45:29;;;;;;;7.97;1.80;;;23.90;60.70;;;;;;5015934;28;20030;-57
2022/08/27 11:48:21;;;;;;;4.22;1.17;;;24.00;60.60;;;;;;5053813;28;20021;-57
2022/08/27 11:51:03;;;;;;;4.50;1.63;;;24.00;60.60;;;;;;5024510;28;20095;-57
2022/08/27 11:53:34;;;;;;;7.32;1.38;;;24.00;60.30;;;;;;5023155;28;20046;-57
2022/08/27 11:56:14;;;;;;;7.95;1.40;;;24.00;60.40;;;;;;5027279;28;20030;-57
2022/08/27 11:58:41;;;;;;;4.85;1.40;;;24.00;60.40;;;;;;5023726;28;20124;-57
2022/08/27 12:01:27;;;;;;;4.25;1.27;;;24.00;60.30;;;;;;5024806;28;20026;-57
2022/08/27 12:04:29;;;;;;;5.28;1.40;;;24.10;60.40;;;;;;5017535;28;22300;-57
2022/08/27 12:07:03;;;;;;;4.80;1.38;;;24.10;60.60;;;;;;5025087;28;20026;-57
2022/08/27 12:09:39;;;;;;;6.75;1.60;;;24.10;60.50;;;;;;5028804;28;20113;-57
2022/08/27 12:12:07;;;;;;;7.55;1.52;;;24.10;60.50;;;;;;5028497;28;20021;-57
2022/08/27 12:14:48;;;;;;;3.95;1.30;;;24.20;60.30;;;;;;5024074;28;20054;-57
2022/08/27 12:17:29;;;;;;;6.05;1.38;;;24.20;60.50;;;;;;5042148;28;20033;-57
2022/08/27 12:20:12;;;;;;;6.93;1.52;;;24.30;60.40;;;;;;5023862;28;20036;-57
2022/08/27 12:25:38;;;;;;;5.40;1.30;;;24.20;60.00;;;;;;5027945;28;20048;-56
2022/08/27 12:28:05;;;;;;;5.50;1.20;;;24.10;60.00;;;;;;5010219;28;20018;-57
2022/08/27 12:30:34;;;;;;;4.97;1.27;;;24.10;60.20;;;;;;5027899;28;20034;-56
2022/08/27 12:33:22;;;;;;;10.80;1.42;;;24.10;60.00;;;;;;5027380;28;20378;-57
2022/08/27 12:35:50;;;;;;;4.68;1.30;;;24.10;60.10;;;;;;5026735;28;20034;-57
2022/08/27 12:38:16;;;;;;;4.22;1.30;;;24.20;60.30;;;;;;5011978;28;20053;-57
2022/08/27 12:40:56;;;;;;;5.28;1.15;;;24.30;60.30;;;;;;5026846;28;20030;-57
2022/08/27 12:43:24;;;;;;;6.07;1.00;;;24.30;60.20;;;;;;5029735;28;20083;-56
2022/08/27 12:45:59;;;;;;;4.68;1.10;;;24.40;60.30;;;;;;5027848;28;20029;-57
2022/08/27 12:48:49;;;;;;;4.15;1.20;;;24.40;60.20;;;;;;5012559;28;20033;-57
2022/08/27 12:51:23;;;;;;;3.35;1.10;;;24.40;59.90;;;;;;5025500;28;20033;-57
2022/08/27 12:54:18;;;;;;;4.90;1.30;;;24.50;60.00;;;;;;5028307;28;20042;-57
2022/08/27 12:57:14;;;;;;;4.40;1.10;;;24.50;60.00;;;;;;5028240;28;20115;-57
2022/08/27 12:59:48;;;;;;;5.10;1.13;;;24.60;59.90;;;;;;5027357;28;20088;-57
2022/08/27 13:02:18;;;;;;;6.20;1.60;;;24.50;59.90;;;;;;5027799;28;20036;-57
2022/08/27 13:04:45;;;;;;;4.93;1.13;;;24.60;59.90;;;;;;5027466;28;20030;-57
2022/08/27 13:07:10;;;;;;;3.75;1.10;;;24.50;59.50;;;;;;5026906;28;20034;-57
2022/08/27 13:09:37;;;;;;;5.75;1.50;;;24.50;59.60;;;;;;5026266;28;20528;-57
2022/08/27 13:12:13;;;;;;;4.35;1.20;;;24.60;59.70;;;;;;5027321;28;20013;-56
2022/08/27 13:14:39;;;;;;;3.17;0.90;;;24.60;59.60;;;;;;5028719;28;20103;-57